MDT,Max TemperatureF,Mean TemperatureF,Min TemperatureF,Max Dew PointF,MeanDew PointF,Min DewpointF,Max Humidity, Mean Humidity, Min Humidity, Max Sea Level PressureIn, Mean Sea Level PressureIn, Min Sea Level PressureIn, Max VisibilityMiles, Mean VisibilityMiles, Min VisibilityMiles, Max Wind SpeedMPH, Mean Wind SpeedMPH, Max Gust SpeedMPH,PrecipitationIn, CloudCover, Events, WindDirDegrees
2013-5-1,59,48,37,40,21,1,92,52,11,30.39,30.10,29.88,10,10,9,26,9,31,0.05,2,Rain,351
2013-5-2,59,45,30,17,11,6,54,34,13,30.58,30.46,30.33,10,10,10,20,7,28,0.00,0,,16
2013-5-3,69,51,32,19,13,6,54,32,10,30.32,30.09,29.86,10,10,10,16,7,20,0.00,0,,98
2013-5-4,76,58,40,22,16,10,41,25,8,29.86,29.77,29.68,10,10,10,21,8,25,0.00,0,,111
2013-5-5,76,65,54,28,19,11,33,21,9,29.88,29.75,29.70,10,10,10,21,11,26,0.00,1,,126
2013-5-6,69,58,47,48,37,20,100,60,20,29.93,29.83,29.77,10,10,7,28,8,32,0.05,6,Rain,111
2013-5-7,64,55,45,48,44,40,100,74,48,30.02,29.94,29.88,10,10,3,24,9,26,0.18,6,Rain-Thunderstorm,117
2013-5-8,55,49,42,46,43,41,100,82,64,30.10,30.00,29.87,10,9,2,24,6,28,0.25,7,Rain,43
2013-5-9,66,56,46,46,42,35,93,68,42,30.12,30.01,29.94,10,10,9,29,8,46,T,4,Rain,138
2013-5-10,71,57,42,45,39,31,89,56,23,30.21,30.09,30.01,10,10,7,24,5,29,0.01,1,Rain-Thunderstorm,137
2013-5-11,77,61,45,39,33,26,76,46,16,30.24,30.16,30.07,10,10,10,15,8,20,0.00,0,,110
2013-5-12,81,66,50,39,34,29,61,38,15,30.18,30.08,29.99,10,10,10,14,6,18,0.00,1,,81
2013-5-13,86,69,52,39,34,28,59,36,13,30.11,30.01,29.89,10,10,10,16,8,25,0.00,1,,110
2013-5-14,87,71,55,39,36,31,47,30,13,29.92,29.82,29.71,10,10,10,28,12,35,0.00,0,,114
2013-5-15,84,72,59,51,41,32,49,33,16,29.89,29.75,29.61,10,10,10,31,9,38,0.05,1,Thunderstorm,102
2013-5-16,82,68,53,44,35,25,71,42,13,29.82,29.70,29.60,10,10,10,20,7,26,0.00,0,,139
2013-5-17,83,71,59,30,21,15,30,20,9,29.89,29.69,29.60,10,10,10,26,12,35,0.00,0,,174
2013-5-18,68,58,47,46,39,29,74,49,24,29.94,29.82,29.72,10,10,10,26,8,32,0.06,5,Rain-Thunderstorm,86
2013-5-19,70,55,40,40,34,25,86,54,21,29.97,29.85,29.78,10,10,10,29,6,36,0.00,3,,326
2013-5-20,65,54,42,45,38,33,76,57,37,30.05,29.95,29.84,10,10,10,32,5,36,0.04,5,Rain-Thunderstorm,343
2013-5-21,74,59,43,44,34,25,80,50,19,30.00,29.87,29.73,10,10,10,15,5,21,0.00,1,,2
2013-5-22,86,68,50,35,27,20,54,32,10,29.73,29.62,29.52,10,10,10,24,12,31,0.00,0,,139
2013-5-23,87,73,59,26,16,6,25,15,5,29.67,29.59,29.52,10,10,10,35,16,44,0.00,0,,169
2013-5-24,84,69,54,22,15,11,22,15,7,29.82,29.76,29.62,10,10,10,21,6,26,0.00,0,,18
2013-5-25,86,70,53,20,16,9,26,17,7,29.85,29.76,29.68,10,10,10,22,9,26,0.00,1,,122
2013-5-26,85,70,55,21,17,11,24,16,7,29.81,29.73,29.65,10,10,10,21,8,24,0.00,0,,135
2013-5-27,83,68,53,21,17,9,24,17,9,29.76,29.68,29.59,10,10,10,23,9,30,0.00,0,,151
2013-5-28,80,65,49,48,28,19,86,50,13,29.82,29.56,29.43,10,9,4,36,16,43,0.18,2,Rain,137
2013-5-29,70,58,45,47,37,24,100,60,19,29.70,29.65,29.59,10,10,10,23,7,31,0.00,3,,306
2013-5-30,74,59,43,36,27,19,76,45,14,29.80,29.74,29.68,10,10,10,29,12,38,0.00,1,,311
2013-5-31,76,64,51,32,18,1,45,26,6,29.99,29.88,29.80,10,10,10,32,12,40,0.00,1,,307